Time;durP1;ratioP1;P1;durP2;ratioP2;P2;SDS_P1;SDS_P2;PMS_P1;PMS_P2;Temp;Humidity;BMP_temperature;BMP_pressure;BME280_temperature;BME280_humidity;BME280_pressure;Samples;Min_cycle;Max_cycle;Signal;HPM_P1;HPM_P2
2023/08/10 00:00:25;;;;;;;5.25;2.10;;;;;;;;;;6273601;22;20051;-66
2023/08/10 00:02:52;;;;;;;9.48;2.45;;;;;;;;;;6274877;22;20030;-66
2023/08/10 00:05:19;;;;;;;7.32;2.35;;;;;;;;;;6222042;22;20020;-68
2023/08/10 00:07:45;;;;;;;10.50;2.20;;;;;;;;;;6222100;22;20062;-66
2023/08/10 00:10:11;;;;;;;8.00;2.80;;;;;;;;;;6247336;22;20021;-66
2023/08/10 00:12:38;;;;;;;5.80;2.10;;;;;;;;;;6274496;22;20023;-66
2023/08/10 00:15:04;;;;;;;9.25;3.30;;;;;;;;;;6221675;22;20015;-65
2023/08/10 00:17:30;;;;;;;6.55;2.15;;;;;;;;;;6247718;22;20042;-66
2023/08/10 00:19:56;;;;;;;10.80;2.50;;;;;;;;;;6247606;22;20024;-65
2023/08/10 00:22:22;;;;;;;6.25;2.38;;;;;;;;;;6272674;22;20027;-66
2023/08/10 00:24:48;;;;;;;7.47;3.08;;;;;;;;;;6274504;22;20474;-65
2023/08/10 00:27:15;;;;;;;12.27;2.70;;;;;;;;;;6274209;22;20016;-66
2023/08/10 00:29:40;;;;;;;8.23;3.08;;;;;;;;;;6247203;22;20440;-66
2023/08/10 00:32:07;;;;;;;12.13;2.92;;;;;;;;;;6273172;22;20019;-66
2023/08/10 00:34:33;;;;;;;10.85;2.70;;;;;;;;;;6274869;22;20123;-65
2023/08/10 00:36:59;;;;;;;11.15;3.10;;;;;;;;;;6273996;22;20025;-66
2023/08/10 00:39:25;;;;;;;6.35;2.90;;;;;;;;;;6273976;22;20012;-66
2023/08/10 00:41:51;;;;;;;6.05;2.45;;;;;;;;;;6274221;22;20012;-65
2023/08/10 00:44:18;;;;;;;5.53;2.97;;;;;;;;;;6274362;22;20146;-66
2023/08/10 00:46:44;;;;;;;6.55;2.80;;;;;;;;;;6222358;22;20630;-65
2023/08/10 00:49:10;;;;;;;7.10;3.20;;;;;;;;;;6274317;22;20022;-66
2023/08/10 00:51:37;;;;;;;8.25;3.00;;;;;;;;;;6247296;22;20020;-66
2023/08/10 00:54:03;;;;;;;8.68;3.53;;;;;;;;;;6274613;22;20141;-65
2023/08/10 00:56:29;;;;;;;9.50;2.88;;;;;;;;;;6218576;22;20379;-66
2023/08/10 00:58:55;;;;;;;13.02;3.70;;;;;;;;;;6244332;22;20015;-66
2023/08/10 01:01:21;;;;;;;8.65;3.30;;;;;;;;;;6245965;22;20019;-66
2023/08/10 01:03:47;;;;;;;8.80;2.80;;;;;;;;;;6273719;22;20030;-65
2023/08/10 01:06:35;;;;;;;7.13;3.55;;;14.60;99.90;;;;;;6220589;22;20038;-66
2023/08/10 01:09:16;;;;;;;9.40;2.90;;;;;;;;;;6275022;22;20119;-65
2023/08/10 01:11:57;;;;;;;8.10;3.30;;;;;;;;;;6274645;22;20400;-65
2023/08/10 01:14:31;;;;;;;9.57;3.28;;;;;;;;;;6245916;22;20023;-65
2023/08/10 01:16:58;;;;;;;8.25;3.05;;;;;;;;;;6222224;22;20027;-66
2023/08/10 01:19:38;;;;;;;5.75;2.60;;;;;;;;;;6247391;22;20232;-65
2023/08/10 01:22:23;;;;;;;6.97;3.03;;;;;;;;;;6220849;22;20020;-65
2023/08/10 01:25:08;;;;;;;8.82;3.15;;;;;;;;;;6274566;22;20441;-65
2023/08/10 01:27:35;;;;;;;11.15;3.00;;;;;;;;;;6246685;22;20077;-66
2023/08/10 01:30:01;;;;;;;6.82;2.67;;;;;;;;;;6247111;22;20027;-66
2023/08/10 01:32:30;;;;;;;5.85;2.53;;;;;;;;;;6273500;22;20015;-66
2023/08/10 01:35:00;;;;;;;7.63;2.20;;;;;;;;;;6246614;22;20024;-65
2023/08/10 01:37:26;;;;;;;4.07;2.33;;;;;;;;;;6223954;22;20495;-65
2023/08/10 01:39:52;;;;;;;5.50;2.22;;;;;;;;;;6249031;22;20457;-66
2023/08/10 01:42:19;;;;;;;7.45;2.35;;;;;;;;;;6276088;22;20015;-65
2023/08/10 01:44:45;;;;;;;6.57;2.50;;;;;;;;;;6275139;22;20020;-65
2023/08/10 01:47:31;;;;;;;5.82;1.80;;;;;;;;;;6275729;22;20019;-65
2023/08/10 01:49:59;;;;;;;8.68;2.63;;;;;;;;;;6223114;22;20023;-65
2023/08/10 01:52:27;;;;;;;7.43;3.95;;;;;;;;;;6248500;22;20028;-66
2023/08/10 01:54:54;;;;;;;7.07;2.50;;;;;;;;;;6248243;22;20020;-65
2023/08/10 01:57:20;;;;;;;7.15;2.13;;;;;;;;;;6223413;22;20018;-66
2023/08/10 01:59:46;;;;;;;8.02;2.40;;;;;;;;;;6222993;22;20051;-65
2023/08/10 02:02:12;;;;;;;9.52;2.90;;;;;;;;;;6274865;22;20019;-66
2023/08/10 02:04:38;;;;;;;6.13;2.30;;;;;;;;;;6275151;22;20019;-65
2023/08/10 02:07:04;;;;;;;5.32;2.60;;;;;;;;;;6275494;22;20467;-65
2023/08/10 02:09:30;;;;;;;5.53;2.05;;;;;;;;;;6276459;22;20012;-65
2023/08/10 02:11:56;;;;;;;8.05;2.22;;;;;;;;;;6275909;22;20051;-65
2023/08/10 02:14:22;;;;;;;6.88;1.80;;;;;;;;;;6275413;22;20027;-65
2023/08/10 02:16:48;;;;;;;9.15;3.75;;;;;;;;;;6274960;22;20333;-65
2023/08/10 02:19:14;;;;;;;5.82;2.67;;;;;;;;;;6275168;22;20041;-65
2023/08/10 02:21:40;;;;;;;12.50;2.35;;;;;;;;;;6274606;22;20024;-65
2023/08/10 02:24:06;;;;;;;3.40;2.00;;;;;;;;;;6222415;22;20015;-65
2023/08/10 02:26:33;;;;;;;4.68;1.98;;;;;;;;;;6276193;22;20035;-65
2023/08/10 02:28:59;;;;;;;7.28;2.42;;;;;;;;;;6276122;22;20387;-65
2023/08/10 02:31:25;;;;;;;5.55;2.20;;;;;;;;;;6248041;22;20020;-65
2023/08/10 02:33:51;;;;;;;10.65;2.92;;;;;;;;;;6274863;22;20023;-65
2023/08/10 02:36:17;;;;;;;6.63;2.25;;;;;;;;;;6248305;22;20022;-65
2023/08/10 02:38:43;;;;;;;7.68;2.15;;;;;;;;;;6276019;22;20149;-65
2023/08/10 02:41:09;;;;;;;8.70;2.10;;;;;;;;;;6274724;22;20015;-65
2023/08/10 02:43:35;;;;;;;4.75;2.08;;;;;;;;;;6222674;22;20011;-66
2023/08/10 02:46:02;;;;;;;7.40;1.83;;;;;;;;;;6223720;22;20050;-65
2023/08/10 02:48:28;;;;;;;10.20;3.85;;;;;;;;;;6222983;22;20332;-65
2023/08/10 02:50:54;;;;;;;8.20;2.55;;;;;;;;;;6247540;22;20146;-66
2023/08/10 02:53:20;;;;;;;4.10;2.03;;;;;;;;;;6275407;22;20020;-65
2023/08/10 02:55:47;;;;;;;6.45;2.80;;;;;;;;;;6274589;22;20027;-65
2023/08/10 02:58:13;;;;;;;8.90;2.80;;;;;;;;;;6274439;22;20020;-65
2023/08/10 03:00:39;;;;;;;7.07;3.10;;;;;;;;;;6247345;22;20023;-65
2023/08/10 03:03:08;;;;;;;7.70;3.17;;;;;;;;;;6274485;22;20016;-65
2023/08/10 03:05:34;;;;;;;7.50;3.20;;;;;;;;;;6223530;22;20023;-65
2023/08/10 03:08:01;;;;;;;6.70;2.75;;;;;;;;;;6274570;22;20094;-65
2023/08/10 03:10:27;;;;;;;5.47;2.80;;;;;;;;;;6247010;22;20089;-65
2023/08/10 03:12:53;;;;;;;6.35;3.00;;;;;;;;;;6247347;22;20066;-65
2023/08/10 03:15:19;;;;;;;5.47;2.70;;;;;;;;;;6273302;22;20016;-65
2023/08/10 03:17:45;;;;;;;6.68;2.90;;;;;;;;;;6222249;22;20421;-65
2023/08/10 03:20:16;;;;;;;10.18;3.50;;;;;;;;;;6274956;22;20027;-65
2023/08/10 03:22:43;;;;;;;5.20;3.20;;;;;;;;;;6247747;22;20016;-66
2023/08/10 03:25:09;;;;;;;10.25;3.33;;;;;;;;;;6247954;22;20065;-65
2023/08/10 03:27:35;;;;;;;9.35;2.80;;;;;;;;;;6275480;22;20062;-65
2023/08/10 03:30:02;;;;;;;5.43;2.92;;;;;;;;;;6274809;22;20020;-65
2023/08/10 03:32:29;;;;;;;6.00;2.72;;;;;;;;;;6222493;22;20095;-66
2023/08/10 03:34:55;;;;;;;6.10;2.83;;;;;;;;;;6223238;22;20023;-65
2023/08/10 03:37:22;;;;;;;6.13;2.70;;;;;;;;;;6222542;22;20066;-65
2023/08/10 03:39:48;;;;;;;7.32;2.72;;;;;;;;;;6223106;22;20020;-66
2023/08/10 03:42:15;;;;;;;9.02;3.28;;;;;;;;;;6222588;22;20016;-65
2023/08/10 03:44:41;;;;;;;8.27;3.28;;;;;;;;;;6246794;22;20023;-65
2023/08/10 03:47:07;;;;;;;5.43;2.72;;;;;;;;;;6274076;22;20062;-65
2023/08/10 03:49:33;;;;;;;8.50;2.88;;;;;;;;;;6275260;22;20020;-65
2023/08/10 03:51:59;;;;;;;5.30;2.72;;;;;;;;;;6273758;22;20098;-65
2023/08/10 03:54:26;;;;;;;4.57;2.55;;;;;;;;;;6273613;22;20041;-65
2023/08/10 03:56:52;;;;;;;5.47;2.90;;;;;;;;;;6222811;22;20065;-65
2023/08/10 03:59:18;;;;;;;7.53;3.25;;;;;;;;;;6273968;22;20020;-66
2023/08/10 04:01:44;;;;;;;8.50;2.90;;;;;;;;;;6274252;22;20134;-66
2023/08/10 04:04:10;;;;;;;7.55;3.13;;;;;;;;;;6247997;22;20041;-65
2023/08/10 04:06:36;;;;;;;6.07;2.50;;;;;;;;;;6274717;22;20322;-66
2023/08/10 04:09:04;;;;;;;6.07;3.08;;;;;;;;;;6222628;22;20336;-65
2023/08/10 04:11:31;;;;;;;5.78;3.13;;;;;;;;;;6222662;22;20016;-65
2023/08/10 04:13:57;;;;;;;6.10;2.92;;;;;;;;;;6247346;22;20081;-65
2023/08/10 04:16:23;;;;;;;7.15;3.17;;;;;;;;;;6274111;22;20505;-65
2023/08/10 04:18:49;;;;;;;6.03;2.33;;;;;;;;;;6274981;22;20046;-65
2023/08/10 04:21:15;;;;;;;8.13;2.83;;;;;;;;;;6274363;22;20058;-66
2023/08/10 04:23:41;;;;;;;5.05;2.90;;;;;;;;;;6247485;22;20011;-66
2023/08/10 04:26:09;;;;;;;3.92;2.33;;;;;;;;;;6221631;22;20023;-65
2023/08/10 04:28:35;;;;;;;10.57;3.45;;;;;;;;;;6220794;22;20215;-65
2023/08/10 04:31:01;;;;;;;5.55;2.60;;;;;;;;;;6274835;22;20020;-66
2023/08/10 04:33:27;;;;;;;5.35;2.80;;;;;;;;;;6247180;22;20028;-65
2023/08/10 04:35:53;;;;;;;12.80;3.22;;;;;;;;;;6274827;22;20066;-65
2023/08/10 04:38:19;;;;;;;4.35;2.65;;;;;;;;;;6222284;22;20015;-65
2023/08/10 04:40:45;;;;;;;6.50;2.97;;;;;;;;;;6246430;22;20012;-65
2023/08/10 04:43:11;;;;;;;5.75;3.08;;;;;;;;;;6246091;22;20077;-65
2023/08/10 04:45:38;;;;;;;6.28;3.00;;;;;;;;;;6247369;22;20020;-65
2023/08/10 04:48:04;;;;;;;7.78;3.13;;;;;;;;;;6246731;22;20032;-65
2023/08/10 04:50:31;;;;;;;8.88;3.10;;;;;;;;;;6273816;22;20016;-65
2023/08/10 04:52:57;;;;;;;7.72;2.85;;;;;;;;;;6247533;22;20020;-66
2023/08/10 04:55:25;;;;;;;5.20;2.83;;;;;;;;;;6273430;22;20364;-66
2023/08/10 04:57:52;;;;;;;7.68;2.95;;;;;;;;;;6246685;22;20026;-66
2023/08/10 05:00:18;;;;;;;11.00;3.22;;;;;;;;;;6273408;22;20372;-66
2023/08/10 05:02:44;;;;;;;5.60;2.90;;;;;;;;;;6273645;22;20073;-66
2023/08/10 05:05:11;;;;;;;6.18;2.72;;;;;;;;;;6270001;22;20032;-65
2023/08/10 05:07:40;;;;;;;4.80;2.63;;;;;;;;;;6220466;22;20051;-66
2023/08/10 05:10:08;;;;;;;7.07;3.20;;;;;;;;;;6246695;22;20103;-66
2023/08/10 05:12:35;;;;;;;8.23;3.60;;;;;;;;;;6275234;22;20115;-66
2023/08/10 05:15:01;;;;;;;7.47;3.28;;;;;;;;;;6223884;22;20058;-65
2023/08/10 05:17:27;;;;;;;6.78;3.20;;;;;;;;;;6275517;22;20020;-65
2023/08/10 05:19:53;;;;;;;9.35;3.22;;;;;;;;;;6275995;22;20302;-65
2023/08/10 05:22:19;;;;;;;7.13;3.05;;;;;;;;;;6221152;22;20019;-65
2023/08/10 05:24:45;;;;;;;13.27;3.15;;;;;;;;;;6274964;22;20015;-66
2023/08/10 05:27:12;;;;;;;7.45;2.72;;;;;;;;;;6220932;22;20032;-65
2023/08/10 05:29:38;;;;;;;12.10;3.15;;;;;;;;;;6275202;22;20016;-65
2023/08/10 05:32:04;;;;;;;7.40;2.80;;;;;;;;;;6276568;22;20059;-65
2023/08/10 05:34:30;;;;;;;9.05;3.10;;;;;;;;;;6277039;22;20030;-66
2023/08/10 05:36:56;;;;;;;7.03;2.88;;;;;;;;;;6276363;22;20069;-66
2023/08/10 05:39:23;;;;;;;4.88;2.63;;;;;;;;;;6276353;22;20102;-67
2023/08/10 05:41:49;;;;;;;7.25;2.92;;;;;;;;;;6222705;22;20015;-66
2023/08/10 05:44:15;;;;;;;7.97;3.20;;;;;;;;;;6275839;22;20455;-67
2023/08/10 05:46:41;;;;;;;8.38;2.88;;;;;;;;;;6276831;22;20405;-66
2023/08/10 05:49:07;;;;;;;7.13;2.53;;;;;;;;;;6276261;22;20069;-66
2023/08/10 05:51:33;;;;;;;9.88;3.13;;;;;;;;;;6275911;22;20309;-66
2023/08/10 05:53:59;;;;;;;6.53;2.70;;;;;;;;;;6276275;22;20016;-66
2023/08/10 05:56:26;;;;;;;8.70;2.85;;;;;;;;;;6275344;22;20057;-67
2023/08/10 05:58:52;;;;;;;5.80;2.33;;;;;;;;;;6249523;22;20019;-67
2023/08/10 06:01:18;;;;;;;6.32;2.88;;;;;;;;;;6274774;22;20023;-67
2023/08/10 06:03:44;;;;;;;5.38;2.95;;;;;;;;;;6248894;22;20129;-66
2023/08/10 06:06:10;;;;;;;5.80;2.78;;;;;;;;;;6276641;22;20020;-67
2023/08/10 06:08:36;;;;;;;6.53;2.63;;;;;;;;;;6224661;22;20024;-67
2023/08/10 06:11:05;;;;;;;11.23;2.75;;;;;;;;;;6248807;22;20415;-64
2023/08/10 06:13:31;;;;;;;10.23;3.33;;;;;;;;;;6276623;22;20097;-67
2023/08/10 06:15:57;;;;;;;5.72;2.25;;;;;;;;;;6249704;22;20023;-67
2023/08/10 06:18:23;;;;;;;6.38;2.33;;;;;;;;;;6276098;22;20046;-65
2023/08/10 06:20:50;;;;;;;8.57;2.40;;;;;;;;;;6273483;22;20023;-67
2023/08/10 06:23:16;;;;;;;7.40;2.00;;;;;;;;;;6220671;22;20046;-67
2023/08/10 06:25:42;;;;;;;9.30;3.00;;;;;;;;;;6245785;22;20024;-66
2023/08/10 06:28:08;;;;;;;7.97;3.03;;;;;;;;;;6276105;22;20011;-68
2023/08/10 06:30:34;;;;;;;6.03;2.38;;;;;;;;;;6274983;22;20095;-68
2023/08/10 06:33:01;;;;;;;8.50;2.13;;;;;;;;;;6248293;22;20074;-66
2023/08/10 06:35:27;;;;;;;6.65;2.38;;;;;;;;;;6220647;22;20034;-67
2023/08/10 06:37:53;;;;;;;7.35;2.60;;;;;;;;;;6273330;22;20023;-67
2023/08/10 06:40:20;;;;;;;8.48;2.20;;;;;;;;;;6245526;22;20020;-68
2023/08/10 06:42:46;;;;;;;5.35;2.00;;;;;;;;;;6272620;22;20445;-68
2023/08/10 06:45:12;;;;;;;7.63;2.10;;;;;;;;;;6245860;22;20023;-65
2023/08/10 06:47:40;;;;;;;5.05;2.30;;;;;;;;;;6245157;22;20028;-67
2023/08/10 06:50:08;;;;;;;3.83;1.85;;;;;;;;;;6272378;22;20023;-67
2023/08/10 06:52:34;;;;;;;6.00;1.80;;;;;;;;;;6220838;22;20019;-66
2023/08/10 06:55:00;;;;;;;9.32;2.10;;;;;;;;;;6272397;22;20440;-67
2023/08/10 06:57:26;;;;;;;9.48;2.15;;;;;;;;;;6272930;22;20436;-66
2023/08/10 06:59:52;;;;;;;7.00;1.80;;;;;;;;;;6272794;22;20015;-67
2023/08/10 07:02:18;;;;;;;5.72;1.80;;;;;;;;;;6272271;22;20020;-67
2023/08/10 07:04:45;;;;;;;4.13;1.88;;;;;;;;;;6246069;22;20019;-67
2023/08/10 07:07:12;;;;;;;4.90;2.10;;;;;;;;;;6245394;22;20095;-67
2023/08/10 07:09:38;;;;;;;7.53;1.88;;;;;;;;;;6274529;22;20434;-68
2023/08/10 07:12:04;;;;;;;5.93;2.03;;;;;;;;;;6247883;22;20436;-68
2023/08/10 07:14:30;;;;;;;7.95;1.77;;;;;;;;;;6247909;22;20066;-68
2023/08/10 07:16:57;;;;;;;5.85;1.73;;;;;;;;;;6248472;22;20016;-70
2023/08/10 07:19:23;;;;;;;6.22;1.98;;;;;;;;;;6275011;22;20469;-70
2023/08/10 07:21:49;;;;;;;8.57;2.10;;;;;;;;;;6275537;22;20452;-69
2023/08/10 07:24:15;;;;;;;6.93;1.88;;;;;;;;;;6273646;22;20022;-69
2023/08/10 07:26:41;;;;;;;8.20;1.83;;;;;;;;;;6248328;22;20016;-70
2023/08/10 07:29:08;;;;;;;5.65;1.60;;;;;;;;;;6275636;22;20016;-70
2023/08/10 07:31:34;;;;;;;9.52;1.70;;;;;;;;;;6275368;22;20349;-69
2023/08/10 07:34:00;;;;;;;5.00;1.40;;;;;;;;;;6248501;22;20028;-69
2023/08/10 07:36:26;;;;;;;6.43;1.33;;;;;;;;;;6275361;22;20016;-69
2023/08/10 07:38:55;;;;;;;4.95;1.25;;;;;;;;;;6247067;22;20087;-69
2023/08/10 07:41:22;;;;;;;6.47;1.30;;;18.30;99.90;;;;;;6223001;22;20123;-69
2023/08/10 07:43:48;;;;;;;4.88;1.60;;;;;;;;;;6248976;22;20364;-68
2023/08/10 07:46:14;;;;;;;5.32;1.63;;;;;;;;;;6275352;22;20074;-70
2023/08/10 07:48:40;;;;;;;13.20;1.50;;;;;;;;;;6275354;22;20020;-69
2023/08/10 07:51:06;;;;;;;5.03;1.20;;;;;;;;;;6275278;22;20016;-70
2023/08/10 07:53:33;;;;;;;8.43;1.35;;;19.80;99.90;;;;;;6274345;22;20092;-70
2023/08/10 07:56:00;;;;;;;3.13;1.35;;;;;;;;;;6222735;22;20065;-69
2023/08/10 07:58:26;;;;;;;2.05;1.00;;;;;;;;;;6274859;22;20106;-69
2023/08/10 08:00:51;;;;;;;4.88;1.15;;;19.50;99.90;;;;;;6275432;22;20016;-70
2023/08/10 08:03:17;;;;;;;10.15;2.10;;;;;;;;;;6275652;22;20019;-70
2023/08/10 08:05:43;;;;;;;6.88;1.17;;;;;;;;;;6248738;22;20030;-70
2023/08/10 08:08:10;;;;;;;3.72;1.20;;;;;;;;;;6248075;22;20019;-70
2023/08/10 08:10:36;;;;;;;8.18;1.20;;;;;;;;;;6276020;22;20091;-69
2023/08/10 08:13:03;;;;;;;6.00;1.83;;;;;;;;;;6275372;22;20023;-68
2023/08/10 08:15:32;;;;;;;4.53;0.82;;;;;;;;;;6222591;22;20471;-70
2023/08/10 08:18:38;;;;;;;4.47;1.00;;;19.50;99.90;;;;;;6275219;22;20019;-69
2023/08/10 08:21:05;;;;;;;6.47;1.00;;;19.40;99.90;;;;;;6274393;22;20020;-69
2023/08/10 08:23:31;;;;;;;3.92;1.52;;;;;;;;;;6222498;22;20026;-70
2023/08/10 08:25:56;;;;;;;6.30;0.93;;;19.50;99.90;;;;;;6275045;22;20023;-70
2023/08/10 08:28:23;;;;;;;5.53;1.10;;;19.40;99.90;;;;;;6275046;22;20012;-70
2023/08/10 08:30:49;;;;;;;3.47;1.02;;;;;;;;;;6222391;22;20020;-70
2023/08/10 08:33:16;;;;;;;4.00;1.00;;;;;;;;;;6248131;22;20077;-69
2023/08/10 08:35:45;;;;;;;4.85;0.90;;;19.50;99.90;;;;;;6222078;22;20059;-68
2023/08/10 08:38:11;;;;;;;4.53;1.20;;;19.60;99.90;;;;;;6247659;22;20019;-70
2023/08/10 08:40:37;;;;;;;5.28;1.20;;;;;;;;;;6222750;22;20024;-69
2023/08/10 08:43:03;;;;;;;3.92;0.98;;;19.90;99.90;;;;;;6274996;22;20023;-66
2023/08/10 08:45:30;;;;;;;3.85;1.10;;;20.00;99.90;;;;;;6222903;22;20070;-70
2023/08/10 08:47:57;;;;;;;6.03;1.20;;;19.90;99.90;;;;;;6248127;22;20095;-70
2023/08/10 08:50:23;;;;;;;7.18;1.13;;;20.00;99.90;;;;;;6274345;22;20541;-70
2023/08/10 08:52:49;;;;;;;5.25;1.10;;;;;;;;;;6247326;22;20042;-70
2023/08/10 08:55:15;;;;;;;6.72;1.50;;;;;;;;;;6222729;22;20020;-70
2023/08/10 08:57:41;;;;;;;3.38;1.15;;;;;;;;;;6274641;22;20020;-70
2023/08/10 09:00:08;;;;;;;5.22;1.13;;;20.10;99.90;;;;;;6274187;22;20138;-69
2023/08/10 09:02:34;;;;;;;4.07;1.30;;;;;;;;;;6222045;22;20429;-69
2023/08/10 09:05:01;;;;;;;7.13;1.35;;;;;;;;;;6247229;22;20020;-69
2023/08/10 09:07:27;;;;;;;4.03;1.10;;;;;;;;;;6248230;22;20070;-70
2023/08/10 09:09:54;;;;;;;4.63;1.63;;;20.30;99.90;;;;;;6247972;22;20095;-70
2023/08/10 09:12:37;;;;;;;2.58;1.10;;;20.10;99.90;;;;;;6247258;22;20016;-70
2023/08/10 09:15:10;;;;;;;4.40;1.40;;;19.90;99.90;;;;;;6247541;22;20023;-69
2023/08/10 09:17:37;;;;;;;2.78;1.23;;;;;;;;;;6247566;22;20016;-70
2023/08/10 09:20:06;;;;;;;5.63;1.38;;;;;;;;;;6221409;22;20020;-70
2023/08/10 09:22:38;;;;;;;7.13;1.25;;;19.80;99.90;;;;;;6247867;22;20082;-71
2023/08/10 09:25:06;;;;;;;4.10;1.00;;;20.10;99.90;;;;;;6221862;22;20028;-69
2023/08/10 09:27:32;;;;;;;3.25;1.05;;;;;;;;;;6248230;22;20077;-70
2023/08/10 09:29:59;;;;;;;5.45;1.58;;;;;;;;;;6273989;22;20019;-70
2023/08/10 09:32:26;;;;;;;3.85;1.15;;;;;;;;;;6274084;22;20015;-70
2023/08/10 09:34:52;;;;;;;5.57;1.58;;;;;;;;;;6246662;22;20106;-70
2023/08/10 09:37:19;;;;;;;4.47;1.00;;;;;;;;;;6274646;22;20023;-70
2023/08/10 09:39:45;;;;;;;6.55;1.30;;;;;;;;;;6274939;22;20055;-69
2023/08/10 09:42:11;;;;;;;4.13;1.30;;;;;;;;;;6275090;22;20024;-70
2023/08/10 09:44:47;;;;;;;6.40;1.30;;;20.20;99.90;;;;;;6274942;22;20333;-70
2023/08/10 09:47:14;;;;;;;3.45;1.25;;;20.10;99.90;;;;;;6247472;22;20015;-70
2023/08/10 09:49:56;;;;;;;4.55;1.40;;;;;;;;;;6248183;22;20085;-69
2023/08/10 09:52:26;;;;;;;5.93;1.52;;;;;;;;;;6247574;22;20085;-70
2023/08/10 09:54:53;;;;;;;5.20;2.05;;;20.30;99.90;;;;;;6222473;22;20123;-71
2023/08/10 09:57:20;;;;;;;4.82;1.38;;;20.30;99.90;;;;;;6222912;22;20020;-71
2023/08/10 09:59:46;;;;;;;5.05;1.30;;;;;;;;;;6276252;22;20016;-70
2023/08/10 10:02:13;;;;;;;6.22;1.58;;;;;;;;;;6248288;22;20088;-70
2023/08/10 10:04:39;;;;;;;2.85;1.27;;;20.70;99.90;;;;;;6249830;22;20387;-70
2023/08/10 10:07:07;;;;;;;4.95;1.67;;;;;;;;;;6249461;22;20016;-70
2023/08/10 10:09:34;;;;;;;4.22;1.33;;;20.80;99.90;;;;;;6249612;22;20023;-70
2023/08/10 10:12:02;;;;;;;3.70;1.52;;;20.80;99.90;;;;;;6249513;22;20022;-70
2023/08/10 10:14:29;;;;;;;5.43;1.58;;;20.80;99.90;;;;;;6249400;22;20360;-70
2023/08/10 10:16:56;;;;;;;5.68;1.58;;;20.90;99.90;;;;;;6248909;22;20030;-70
2023/08/10 10:19:22;;;;;;;6.35;1.85;;;;;;;;;;6275867;22;20089;-70
2023/08/10 10:21:49;;;;;;;4.55;1.50;;;20.80;99.90;;;;;;6249776;22;20012;-70
2023/08/10 10:24:18;;;;;;;2.95;1.70;;;21.10;99.90;;;;;;6276166;22;20048;-70
2023/08/10 10:27:08;;;;;;;6.13;1.95;;;21.10;99.90;;;;;;6249384;22;20448;-70
2023/08/10 10:29:35;;;;;;;;;;;21.30;99.90;;;;;;6276780;22;20012;-71
2023/08/10 10:32:15;;;;;;;4.60;2.03;;;22.20;99.90;;;;;;6248134;22;19938;-70
2023/08/10 10:34:41;;;;;;;8.30;2.58;;;;;;;;;;6275587;22;20452;-70
2023/08/10 10:37:15;;;;;;;4.78;2.10;;;21.30;99.90;;;;;;6248708;22;20022;-70
2023/08/10 10:39:45;;;;;;;4.32;2.10;;;21.80;99.90;;;;;;6223988;22;20020;-70
2023/08/10 10:42:12;;;;;;;7.65;2.45;;;;;;;;;;6223926;22;20022;-70
2023/08/10 10:45:01;;;;;;;5.75;2.28;;;22.00;99.90;;;;;;6249162;22;20019;-70
2023/08/10 10:47:38;;;;;;;8.33;2.53;;;22.10;99.90;;;;;;6248692;22;20034;-71
2023/08/10 10:50:35;;;;;;;4.65;2.10;;;21.90;99.90;;;;;;6275441;22;20421;-71
2023/08/10 10:53:04;;;;;;;5.60;2.45;;;21.90;99.90;;;;;;6245592;22;20341;-71
2023/08/10 10:55:35;;;;;;;5.25;1.90;;;22.00;99.90;;;;;;6224116;22;20070;-70
2023/08/10 10:58:07;;;;;;;6.53;2.30;;;21.90;99.90;;;;;;6275880;22;20026;-70
2023/08/10 11:00:34;;;;;;;6.35;2.08;;;21.80;99.90;;;;;;6275275;22;20023;-71
2023/08/10 11:03:03;;;;;;;5.07;2.40;;;22.00;99.90;;;;;;6223010;22;20409;-71
2023/08/10 11:05:29;;;;;;;4.70;2.15;;;;;;;;;;6223307;22;20023;-70
2023/08/10 11:07:56;;;;;;;9.68;3.72;;;;;;;;;;6247779;22;20449;-70
2023/08/10 11:10:22;;;;;;;6.75;2.60;;;;;;;;;;6223115;22;20342;-71
2023/08/10 11:12:48;;;;;;;5.13;2.08;;;21.80;99.90;;;;;;6275741;22;20016;-71
2023/08/10 11:15:16;;;;;;;6.70;1.80;;;21.80;99.90;;;;;;6247569;22;20034;-70
2023/08/10 11:17:50;;;;;;;5.05;2.13;;;21.90;99.90;;;;;;6248975;22;20019;-71
2023/08/10 11:20:17;;;;;;;6.07;2.50;;;;;;;;;;6275067;22;20440;-70
2023/08/10 11:22:45;;;;;;;5.00;3.00;;;21.70;99.90;;;;;;6223529;22;20078;-70
2023/08/10 11:25:18;;;;;;;4.05;2.20;;;22.00;99.90;;;;;;6223255;22;20019;-70
2023/08/10 11:27:47;;;;;;;5.82;2.00;;;22.10;99.90;;;;;;6248641;22;20069;-70
2023/08/10 11:30:17;;;;;;;4.03;2.05;;;22.60;99.90;;;;;;6248018;22;20016;-71
2023/08/10 11:32:45;;;;;;;4.60;2.28;;;22.90;99.90;;;;;;6275138;22;20015;-69
2023/08/10 11:35:12;;;;;;;6.60;3.00;;;23.10;99.90;;;;;;6247755;22;20012;-70
2023/08/10 11:37:40;;;;;;;7.47;2.42;;;23.40;99.90;;;;;;6275722;22;20016;-71
2023/08/10 11:40:13;;;;;;;5.78;3.03;;;23.30;99.90;;;;;;6274350;22;20015;-70
2023/08/10 11:42:42;;;;;;;5.93;2.33;;;23.30;99.90;;;;;;6223559;22;20105;-69
2023/08/10 11:45:20;;;;;;;6.78;3.00;;;23.50;99.90;;;;;;6247863;22;20019;-70
2023/08/10 11:48:00;;;;;;;5.18;2.30;;;23.60;99.90;;;;;;6275504;22;20016;-70
2023/08/10 11:50:28;;;;;;;;;;;23.50;99.90;;;;;;6223733;22;20440;-70
2023/08/10 11:52:54;;;;;;;4.15;2.10;;;23.60;99.90;;;;;;6223102;22;19915;-71
2023/08/10 11:55:21;;;;;;;6.88;2.13;;;23.90;99.90;;;;;;6247762;22;20095;-70
2023/08/10 11:57:54;;;;;;;5.35;2.60;;;23.90;99.90;;;;;;6248122;22;20031;-70
2023/08/10 12:00:30;;;;;;;8.35;3.13;;;23.80;99.90;;;;;;6223193;22;20019;-70
2023/08/10 12:03:04;;;;;;;6.55;2.88;;;23.90;99.90;;;;;;6248496;22;20096;-70
2023/08/10 12:05:37;;;;;;;6.93;2.70;;;24.00;99.90;;;;;;6275784;22;20027;-70
2023/08/10 12:08:08;;;;;;;5.85;2.90;;;23.90;99.90;;;;;;6248096;22;20024;-64
2023/08/10 12:10:39;;;;;;;8.27;3.08;;;24.00;99.90;;;;;;6248770;22;20372;-71
2023/08/10 12:13:06;;;;;;;6.38;3.10;;;24.00;99.90;;;;;;6222565;22;20020;-70
2023/08/10 12:15:36;;;;;;;5.65;3.40;;;23.90;99.90;;;;;;6222927;22;20078;-70
2023/08/10 12:18:02;;;;;;;8.40;2.65;;;;;;;;;;6222290;22;20023;-64
2023/08/10 12:20:28;;;;;;;5.32;2.60;;;23.70;99.90;;;;;;6275247;22;20023;-70
2023/08/10 12:22:54;;;;;;;8.57;4.53;;;23.70;99.90;;;;;;6222644;22;20023;-70
2023/08/10 12:25:23;;;;;;;6.35;3.08;;;23.90;99.90;;;;;;6247796;22;20011;-71
2023/08/10 12:27:48;;;;;;;6.32;3.10;;;23.90;99.90;;;;;;6247867;22;20336;-70
2023/08/10 12:30:15;;;;;;;7.35;3.13;;;23.80;99.90;;;;;;6275260;22;20057;-70
2023/08/10 12:32:40;;;;;;;6.97;3.60;;;24.10;99.90;;;;;;6247830;22;20090;-71
2023/08/10 12:35:06;;;;;;;7.65;4.03;;;23.80;99.90;;;;;;6247870;22;20062;-69
2023/08/10 12:37:32;;;;;;;6.90;3.80;;;23.90;99.90;;;;;;6222359;22;20024;-70
2023/08/10 12:39:58;;;;;;;7.43;3.30;;;23.90;99.90;;;;;;6275218;22;20314;-70
2023/08/10 12:42:26;;;;;;;6.97;4.00;;;23.80;99.90;;;;;;6274094;22;20317;-71
2023/08/10 12:44:52;;;;;;;6.40;3.92;;;23.90;99.90;;;;;;6223015;22;20016;-71
2023/08/10 12:47:18;;;;;;;7.40;3.65;;;;;;;;;;6274201;22;20314;-68
2023/08/10 12:49:44;;;;;;;7.25;3.80;;;24.10;99.90;;;;;;6275063;22;20379;-70
2023/08/10 12:52:10;;;;;;;6.68;3.92;;;24.10;99.90;;;;;;6222592;22;20015;-71
2023/08/10 12:54:36;;;;;;;9.02;4.38;;;24.20;99.90;;;;;;6246949;22;20016;-71
2023/08/10 12:57:02;;;;;;;8.32;3.78;;;;;;;;;;6221818;22;20437;-65
2023/08/10 12:59:28;;;;;;;7.28;2.85;;;24.30;99.90;;;;;;6275141;22;20020;-70
2023/08/10 13:01:53;;;;;;;8.43;4.60;;;24.30;99.90;;;;;;6247860;22;20027;-70
2023/08/10 13:04:19;;;;;;;7.78;4.63;;;24.50;99.90;;;;;;6274897;22;20095;-71
2023/08/10 13:06:45;;;;;;;6.82;4.60;;;24.30;99.90;;;;;;6247304;22;20019;-71
2023/08/10 13:09:10;;;;;;;7.97;5.10;;;24.60;99.90;;;;;;6274970;22;20393;-71
2023/08/10 13:11:37;;;;;;;8.13;4.10;;;24.90;99.90;;;;;;6274121;22;20011;-70
2023/08/10 13:14:03;;;;;;;5.95;4.50;;;24.70;99.90;;;;;;6247557;22;20016;-68
2023/08/10 13:16:29;;;;;;;7.20;3.60;;;25.00;99.90;;;;;;6247340;22;20016;-71
2023/08/10 13:18:54;;;;;;;6.05;3.35;;;25.00;99.90;;;;;;6247554;22;20302;-71
2023/08/10 13:21:20;;;;;;;6.70;3.75;;;24.80;99.90;;;;;;6274484;22;20188;-71
2023/08/10 13:23:46;;;;;;;7.03;4.30;;;24.80;99.90;;;;;;6247991;22;20019;-71
2023/08/10 13:26:12;;;;;;;7.22;3.65;;;24.90;99.90;;;;;;6273896;22;20016;-70
2023/08/10 13:28:37;;;;;;;7.53;4.68;;;24.90;99.90;;;;;;6275158;22;20026;-71
2023/08/10 13:31:03;;;;;;;8.00;3.90;;;24.50;99.90;;;;;;6274334;22;20022;-70
2023/08/10 13:33:31;;;;;;;6.93;3.85;;;24.70;99.90;;;;;;6276716;22;20099;-71
2023/08/10 13:35:57;;;;;;;11.85;4.75;;;24.70;99.90;;;;;;6249748;22;20012;-71
2023/08/10 13:38:22;;;;;;;7.60;4.57;;;24.70;99.90;;;;;;6248340;22;20015;-71
2023/08/10 13:40:49;;;;;;;7.88;5.00;;;;;;;;;;6248649;22;20022;-71
2023/08/10 13:43:15;;;;;;;8.88;4.47;;;24.60;99.90;;;;;;6249185;22;20055;-70
2023/08/10 13:45:41;;;;;;;8.63;4.53;;;;;;;;;;6277207;22;20015;-70
2023/08/10 13:48:09;;;;;;;8.15;4.13;;;24.40;99.90;;;;;;6275227;22;20332;-71
2023/08/10 13:50:35;;;;;;;7.40;4.32;;;23.80;99.90;;;;;;6275950;22;20514;-71
2023/08/10 13:53:02;;;;;;;8.95;3.92;;;;;;;;;;6249614;22;20043;-65
2023/08/10 13:55:28;;;;;;;9.15;4.07;;;;;;;;;;6249229;22;20022;-71
2023/08/10 13:57:54;;;;;;;9.68;4.60;;;23.50;99.90;;;;;;6276313;22;20048;-71
2023/08/10 14:00:20;;;;;;;6.40;3.45;;;;;;;;;;6248668;22;20015;-70
2023/08/10 14:02:46;;;;;;;5.63;3.70;;;;;;;;;;6249479;22;20024;-70
2023/08/10 14:05:13;;;;;;;7.47;3.58;;;22.80;99.90;;;;;;6223994;22;20098;-71